sensor_id;sensor_type;location;lat;lon;timestamp;pressure;altitude;pressure_sealevel;temperature;humidity
38558;BME280;24333;42.626;23.308;2023-04-22T00:01:19;70387.91;;;-148.95;98.77
38558;BME280;24333;42.626;23.308;2023-04-22T00:03:45;70385.81;;;-148.95;98.74
38558;BME280;24333;42.626;23.308;2023-04-22T00:06:11;70387.91;;;-148.95;98.70
38558;BME280;24333;42.626;23.308;2023-04-22T00:08:36;70385.81;;;-148.95;99.42
38558;BME280;24333;42.626;23.308;2023-04-22T00:11:02;70387.91;;;-148.95;99.07
38558;BME280;24333;42.626;23.308;2023-04-22T00:13:47;70394.13;;;-148.95;100.00
38558;BME280;24333;42.626;23.308;2023-04-22T00:16:13;70389.97;;;-148.95;100.00
38558;BME280;24333;42.626;23.308;2023-04-22T00:18:38;70392.03;;;-148.95;100.00
38558;BME280;24333;42.626;23.308;2023-04-22T00:21:04;70387.91;;;-148.95;100.00
38558;BME280;24333;42.626;23.308;2023-04-22T00:23:49;70383.75;;;-148.95;98.96
38558;BME280;24333;42.626;23.308;2023-04-22T00:26:54;70387.91;;;-148.95;100.00
38558;BME280;24333;42.626;23.308;2023-04-22T00:29:19;70383.75;;;-148.95;99.27
38558;BME280;24333;42.626;23.308;2023-04-22T00:31:44;70394.13;;;-148.95;98.08
38558;BME280;24333;42.626;23.308;2023-04-22T00:34:10;70381.66;;;-148.95;98.08
38558;BME280;24333;42.626;23.308;2023-04-22T00:36:35;70379.59;;;-148.95;96.32
38558;BME280;24333;42.626;23.308;2023-04-22T00:39:01;70377.53;;;-148.95;95.94
38558;BME280;24333;42.626;23.308;2023-04-22T00:41:45;70373.38;;;-148.95;95.31
38558;BME280;24333;42.626;23.308;2023-04-22T00:44:11;70369.22;;;-148.95;94.65
38558;BME280;24333;42.626;23.308;2023-04-22T00:46:37;70365.06;;;-148.95;94.50
38558;BME280;24333;42.626;23.308;2023-04-22T00:49:04;70367.16;;;-148.95;94.77
38558;BME280;24333;42.626;23.308;2023-04-22T00:51:54;70367.16;;;-148.95;93.85
38558;BME280;24333;42.626;23.308;2023-04-22T00:57:54;70371.28;;;-148.95;92.61
38558;BME280;24333;42.626;23.308;2023-04-22T01:00:22;70373.38;;;-148.95;93.39
38558;BME280;24333;42.626;23.308;2023-04-22T01:02:54;70379.59;;;-148.95;93.04
38558;BME280;24333;42.626;23.308;2023-04-22T01:05:20;70381.66;;;-148.95;93.58
38558;BME280;24333;42.626;23.308;2023-04-22T01:07:46;70375.44;;;-148.95;94.57
38558;BME280;24333;42.626;23.308;2023-04-22T01:10:12;70377.53;;;-148.95;94.89
38558;BME280;24333;42.626;23.308;2023-04-22T01:12:46;70392.03;;;-148.95;94.84
38558;BME280;24333;42.626;23.308;2023-04-22T01:15:12;70387.91;;;-148.95;93.72
38558;BME280;24333;42.626;23.308;2023-04-22T01:17:37;70392.03;;;-148.95;94.25
38558;BME280;24333;42.626;23.308;2023-04-22T01:20:03;70394.13;;;-148.95;94.64
38558;BME280;24333;42.626;23.308;2023-04-22T01:22:54;70398.28;;;-148.95;95.00
38558;BME280;24333;42.626;23.308;2023-04-22T01:26:12;70398.28;;;-148.95;95.69
38558;BME280;24333;42.626;23.308;2023-04-22T01:28:38;70398.28;;;-148.95;97.52
38558;BME280;24333;42.626;23.308;2023-04-22T01:31:04;70400.34;;;-148.95;97.67
38558;BME280;24333;42.626;23.308;2023-04-22T01:33:29;70414.88;;;-148.95;96.64
38558;BME280;24333;42.626;23.308;2023-04-22T01:35:55;70419.00;;;-148.95;98.16
38558;BME280;24333;42.626;23.308;2023-04-22T01:38:21;70429.38;;;-148.95;97.89
38558;BME280;24333;42.626;23.308;2023-04-22T01:41:06;70429.38;;;-148.95;98.86
38558;BME280;24333;42.626;23.308;2023-04-22T01:43:31;70429.38;;;-148.95;100.00
38558;BME280;24333;42.626;23.308;2023-04-22T01:45:59;70435.63;;;-148.95;99.75
38558;BME280;24333;42.626;23.308;2023-04-22T01:48:26;70441.84;;;-148.95;100.00
38558;BME280;24333;42.626;23.308;2023-04-22T01:54:35;70454.28;;;-148.95;99.45
38558;BME280;24333;42.626;23.308;2023-04-22T01:57:08;70452.22;;;-148.95;99.98
38558;BME280;24333;42.626;23.308;2023-04-22T01:59:34;70435.63;;;-148.95;100.00
38558;BME280;24333;42.626;23.308;2023-04-22T02:02:00;70427.31;;;-148.95;100.00
38558;BME280;24333;42.626;23.308;2023-04-22T02:04:25;70425.25;;;-148.95;100.00
38558;BME280;24333;42.626;23.308;2023-04-22T02:06:51;70416.94;;;-148.95;100.00
38558;BME280;24333;42.626;23.308;2023-04-22T02:09:16;70408.63;;;-148.95;100.00
38558;BME280;24333;42.626;23.308;2023-04-22T02:11:41;70396.19;;;-148.95;100.00
38558;BME280;24333;42.626;23.308;2023-04-22T02:14:07;70387.91;;;-148.95;100.00
38558;BME280;24333;42.626;23.308;2023-04-22T02:16:32;70371.28;;;-148.95;100.00
38558;BME280;24333;42.626;23.308;2023-04-22T02:18:58;70365.06;;;-148.95;100.00
38558;BME280;24333;42.626;23.308;2023-04-22T02:21:25;70356.78;;;-148.95;100.00
38558;BME280;24333;42.626;23.308;2023-04-22T02:23:50;70354.69;;;-148.95;100.00
38558;BME280;24333;42.626;23.308;2023-04-22T05:24:51;70300.75;;;-148.95;100.00
38558;BME280;24333;42.626;23.308;2023-04-22T08:09:22;69906.59;;;-148.95;66.63
38558;BME280;24333;42.626;23.308;2023-04-22T08:11:47;69881.69;;;-148.95;64.92
38558;BME280;24333;42.626;23.308;2023-04-22T08:14:13;69885.84;;;-148.95;62.48
38558;BME280;24333;42.626;23.308;2023-04-22T08:16:38;69885.84;;;-148.95;61.69
38558;BME280;24333;42.626;23.308;2023-04-22T08:19:09;69863.03;;;-148.95;60.28
38558;BME280;24333;42.626;23.308;2023-04-22T08:22:02;69852.66;;;-148.95;59.46
38558;BME280;24333;42.626;23.308;2023-04-22T08:27:36;69840.19;;;-148.95;58.29
38558;BME280;24333;42.626;23.308;2023-04-22T08:30:03;69823.59;;;-148.95;56.81
38558;BME280;24333;42.626;23.308;2023-04-22T08:32:29;69813.22;;;-148.95;56.06
38558;BME280;24333;42.626;23.308;2023-04-22T08:34:54;69819.47;;;-148.95;56.26
38558;BME280;24333;42.626;23.308;2023-04-22T08:37:46;69790.41;;;-148.95;56.02
38558;BME280;24333;42.626;23.308;2023-04-22T08:40:11;69794.56;;;-148.95;54.76
38558;BME280;24333;42.626;23.308;2023-04-22T08:42:38;69800.78;;;-148.95;55.14
38558;BME280;24333;42.626;23.308;2023-04-22T08:45:05;69804.94;;;-148.95;55.00
38558;BME280;24333;42.626;23.308;2023-04-22T08:47:31;69784.19;;;-148.95;55.10
38558;BME280;24333;42.626;23.308;2023-04-22T08:50:08;69777.97;;;-148.95;49.95
38558;BME280;24333;42.626;23.308;2023-04-22T08:52:56;69761.38;;;-148.95;51.82
38558;BME280;24333;42.626;23.308;2023-04-22T08:55:48;69755.16;;;-148.95;49.90
38558;BME280;24333;42.626;23.308;2023-04-22T08:58:14;69740.63;;;-148.95;51.52
38558;BME280;24333;42.626;23.308;2023-04-22T09:00:42;69751.00;;;-148.95;51.62
38558;BME280;24333;42.626;23.308;2023-04-22T09:03:09;69726.09;;;-148.95;52.63
38558;BME280;24333;42.626;23.308;2023-04-22T09:08:34;69717.81;;;-148.95;50.44
38558;BME280;24333;42.626;23.308;2023-04-22T09:11:06;69701.22;;;-148.95;51.17
38558;BME280;24333;42.626;23.308;2023-04-22T09:13:47;69688.78;;;-148.95;47.84
38558;BME280;24333;42.626;23.308;2023-04-22T09:16:46;69688.78;;;-148.95;47.57
38558;BME280;24333;42.626;23.308;2023-04-22T09:19:13;69670.09;;;-148.95;47.44
38558;BME280;24333;42.626;23.308;2023-04-22T09:21:40;69641.06;;;-148.95;45.97
38558;BME280;24333;42.626;23.308;2023-04-22T09:24:18;69672.19;;;-148.95;46.39
38558;BME280;24333;42.626;23.308;2023-04-22T09:26:45;69670.09;;;-148.95;45.46
38558;BME280;24333;42.626;23.308;2023-04-22T09:29:14;69651.44;;;-148.95;47.93
38558;BME280;24333;42.626;23.308;2023-04-22T09:31:40;69618.25;;;-148.95;46.44
38558;BME280;24333;42.626;23.308;2023-04-22T09:34:07;69607.88;;;-148.95;43.69
38558;BME280;24333;42.626;23.308;2023-04-22T09:36:42;69587.13;;;-148.95;43.17
38558;BME280;24333;42.626;23.308;2023-04-22T09:39:26;69574.69;;;-148.95;41.50
38558;BME280;24333;42.626;23.308;2023-04-22T09:42:11;69560.16;;;-148.95;41.92
38558;BME280;24333;42.626;23.308;2023-04-22T09:44:38;69556.03;;;-148.95;41.03
38558;BME280;24333;42.626;23.308;2023-04-22T09:47:04;69524.91;;;-148.95;40.39
38558;BME280;24333;42.626;23.308;2023-04-22T09:49:35;69500.00;;;-148.95;40.61
38558;BME280;24333;42.626;23.308;2023-04-22T09:52:01;69468.91;;;-148.95;40.57
38558;BME280;24333;42.626;23.308;2023-04-22T09:54:27;69466.81;;;-148.95;38.36
38558;BME280;24333;42.626;23.308;2023-04-22T09:56:53;69470.97;;;-148.95;39.16
38558;BME280;24333;42.626;23.308;2023-04-22T09:59:27;69439.88;;;-148.95;37.44
38558;BME280;24333;42.626;23.308;2023-04-22T10:01:58;69421.19;;;-148.95;36.19
38558;BME280;24333;42.626;23.308;2023-04-22T10:04:25;69412.91;;;-148.95;34.60
38558;BME280;24333;42.626;23.308;2023-04-22T10:06:52;69390.09;;;-148.95;35.38
38558;BME280;24333;42.626;23.308;2023-04-22T10:09:19;69381.78;;;-148.95;33.59
38558;BME280;24333;42.626;23.308;2023-04-22T10:11:45;69346.53;;;-148.95;35.78
38558;BME280;24333;42.626;23.308;2023-04-22T10:14:11;69346.53;;;-148.95;35.14
38558;BME280;24333;42.626;23.308;2023-04-22T10:16:39;69429.50;;;-148.95;37.46
38558;BME280;24333;42.626;23.308;2023-04-22T10:19:09;69431.56;;;-148.95;38.68
38558;BME280;24333;42.626;23.308;2023-04-22T10:21:35;69427.41;;;-148.95;38.96
38558;BME280;24333;42.626;23.308;2023-04-22T10:24:02;69402.53;;;-148.95;38.95
38558;BME280;24333;42.626;23.308;2023-04-22T10:26:48;69365.19;;;-148.95;38.02
38558;BME280;24333;42.626;23.308;2023-04-22T10:29:17;69361.03;;;-148.95;38.24
38558;BME280;24333;42.626;23.308;2023-04-22T10:31:53;69394.22;;;-148.95;37.75
38558;BME280;24333;42.626;23.308;2023-04-22T10:34:19;69408.75;;;-148.95;37.58
38558;BME280;24333;42.626;23.308;2023-04-22T10:36:59;69417.03;;;-148.95;38.82
38558;BME280;24333;42.626;23.308;2023-04-22T10:39:26;69396.31;;;-148.95;40.87
38558;BME280;24333;42.626;23.308;2023-04-22T10:41:56;69408.75;;;-148.95;38.02
38558;BME280;24333;42.626;23.308;2023-04-22T10:44:44;69439.88;;;-148.95;38.87
38558;BME280;24333;42.626;23.308;2023-04-22T10:47:10;69419.13;;;-148.95;37.95
38558;BME280;24333;42.626;23.308;2023-04-22T10:49:35;69433.63;;;-148.95;37.88
38558;BME280;24333;42.626;23.308;2023-04-22T10:52:01;69460.59;;;-148.95;37.98
38558;BME280;24333;42.626;23.308;2023-04-22T10:59:28;69410.81;;;-148.95;37.90
38558;BME280;24333;42.626;23.308;2023-04-22T11:01:55;69340.31;;;-148.95;36.38
38558;BME280;24333;42.626;23.308;2023-04-22T11:04:25;69273.94;;;-148.95;36.11
38558;BME280;24333;42.626;23.308;2023-04-22T11:10:00;69188.91;;;-148.95;34.09
38558;BME280;24333;42.626;23.308;2023-04-22T11:15:20;68991.88;;;-148.95;34.50
38558;BME280;24333;42.626;23.308;2023-04-22T11:17:59;69058.22;;;-148.95;33.03
38558;BME280;24333;42.626;23.308;2023-04-22T11:20:26;69137.03;;;-148.95;34.65
38558;BME280;24333;42.626;23.308;2023-04-22T14:07:07;69489.66;;;-148.95;38.10
38558;BME280;24333;42.626;23.308;2023-04-22T14:09:41;69479.28;;;-148.95;37.04
38558;BME280;24333;42.626;23.308;2023-04-22T14:12:36;69495.88;;;-148.95;37.15
38558;BME280;24333;42.626;23.308;2023-04-22T14:21:42;69483.41;;;-148.95;37.39
38558;BME280;24333;42.626;23.308;2023-04-22T14:24:14;69441.94;;;-148.95;37.40
38558;BME280;24333;42.626;23.308;2023-04-22T14:27:05;69427.41;;;-148.95;36.60
38558;BME280;24333;42.626;23.308;2023-04-22T14:29:51;69437.78;;;-148.95;36.52
38558;BME280;24333;42.626;23.308;2023-04-22T14:32:38;69452.31;;;-148.95;37.03
38558;BME280;24333;42.626;23.308;2023-04-22T14:35:20;69427.41;;;-148.95;36.33
38558;BME280;24333;42.626;23.308;2023-04-22T14:37:46;69342.38;;;-148.95;35.41
38558;BME280;24333;42.626;23.308;2023-04-22T14:40:11;69211.72;;;-148.95;34.74
38558;BME280;24333;42.626;23.308;2023-04-22T14:42:37;69083.13;;;-148.95;33.66
38558;BME280;24333;42.626;23.308;2023-04-22T14:48:45;69141.19;;;-148.95;34.04
38558;BME280;24333;42.626;23.308;2023-04-22T14:51:10;69271.84;;;-148.95;34.58
38558;BME280;24333;42.626;23.308;2023-04-22T14:53:36;69298.81;;;-148.95;37.92
38558;BME280;24333;42.626;23.308;2023-04-22T14:56:01;69300.91;;;-148.95;35.93
38558;BME280;24333;42.626;23.308;2023-04-22T14:58:27;69346.53;;;-148.95;35.04
38558;BME280;24333;42.626;23.308;2023-04-22T15:00:56;69344.44;;;-148.95;35.37
38558;BME280;24333;42.626;23.308;2023-04-22T15:03:22;69383.84;;;-148.95;35.70
38558;BME280;24333;42.626;23.308;2023-04-22T15:05:47;69346.53;;;-148.95;35.43
38558;BME280;24333;42.626;23.308;2023-04-22T15:08:13;69263.56;;;-148.95;34.30
38558;BME280;24333;42.626;23.308;2023-04-22T15:10:39;69244.91;;;-148.95;34.75
38558;BME280;24333;42.626;23.308;2023-04-22T15:13:04;69278.09;;;-148.95;34.05
38558;BME280;24333;42.626;23.308;2023-04-22T15:15:30;69217.94;;;-148.95;33.57
38558;BME280;24333;42.626;23.308;2023-04-22T15:17:56;69209.63;;;-148.95;34.15
38558;BME280;24333;42.626;23.308;2023-04-22T15:20:24;69170.22;;;-148.95;34.91
38558;BME280;24333;42.626;23.308;2023-04-22T15:22:51;69091.41;;;-148.95;34.35
38558;BME280;24333;42.626;23.308;2023-04-22T15:25:16;69025.06;;;-148.95;32.52
38558;BME280;24333;42.626;23.308;2023-04-22T15:27:42;68969.06;;;-148.95;32.01
38558;BME280;24333;42.626;23.308;2023-04-22T15:30:07;68956.63;;;-148.95;31.95
38558;BME280;24333;42.626;23.308;2023-04-22T15:32:35;68985.66;;;-148.95;32.04
38558;BME280;24333;42.626;23.308;2023-04-22T15:35:03;69035.41;;;-148.95;32.30
38558;BME280;24333;42.626;23.308;2023-04-22T15:37:30;69070.69;;;-148.95;33.31
38558;BME280;24333;42.626;23.308;2023-04-22T15:39:56;69124.59;;;-148.95;32.81
38558;BME280;24333;42.626;23.308;2023-04-22T15:42:21;69174.38;;;-148.95;33.69
38558;BME280;24333;42.626;23.308;2023-04-22T15:44:47;69197.19;;;-148.95;33.70
38558;BME280;24333;42.626;23.308;2023-04-22T15:47:12;69238.69;;;-148.95;33.48
38558;BME280;24333;42.626;23.308;2023-04-22T15:49:40;69367.28;;;-148.95;36.64
38558;BME280;24333;42.626;23.308;2023-04-22T15:52:27;69410.81;;;-148.95;38.09
38558;BME280;24333;42.626;23.308;2023-04-22T15:54:54;69412.91;;;-148.95;38.45
38558;BME280;24333;42.626;23.308;2023-04-22T15:57:22;69460.59;;;-148.95;39.02
38558;BME280;24333;42.626;23.308;2023-04-22T16:00:06;69464.75;;;-148.95;39.28
38558;BME280;24333;42.626;23.308;2023-04-22T16:02:54;69510.38;;;-148.95;39.17
38558;BME280;24333;42.626;23.308;2023-04-22T16:05:33;69537.34;;;-148.95;40.26
38558;BME280;24333;42.626;23.308;2023-04-22T16:08:00;69529.06;;;-148.95;39.52
38558;BME280;24333;42.626;23.308;2023-04-22T16:10:25;69562.25;;;-148.95;39.27
38558;BME280;24333;42.626;23.308;2023-04-22T16:12:52;69593.34;;;-148.95;39.82
38558;BME280;24333;42.626;23.308;2023-04-22T16:15:18;69628.63;;;-148.95;40.60
38558;BME280;24333;42.626;23.308;2023-04-22T16:17:44;69649.38;;;-148.95;40.79
38558;BME280;24333;42.626;23.308;2023-04-22T16:20:09;69632.78;;;-148.95;41.06
38558;BME280;24333;42.626;23.308;2023-04-22T16:22:35;69636.91;;;-148.95;41.14
38558;BME280;24333;42.626;23.308;2023-04-22T16:25:01;69657.66;;;-148.95;41.88
38558;BME280;24333;42.626;23.308;2023-04-22T16:27:26;69659.72;;;-148.95;43.25
38558;BME280;24333;42.626;23.308;2023-04-22T16:29:52;69663.88;;;-148.95;43.44
38558;BME280;24333;42.626;23.308;2023-04-22T16:32:17;69670.09;;;-148.95;44.21
38558;BME280;24333;42.626;23.308;2023-04-22T16:34:42;69682.56;;;-148.95;45.13
38558;BME280;24333;42.626;23.308;2023-04-22T16:37:08;69692.91;;;-148.95;46.30
38558;BME280;24333;42.626;23.308;2023-04-22T16:39:33;69707.44;;;-148.95;47.20
38558;BME280;24333;42.626;23.308;2023-04-22T16:42:00;69709.50;;;-148.95;47.32
38558;BME280;24333;42.626;23.308;2023-04-22T16:44:26;69724.03;;;-148.95;47.84
38558;BME280;24333;42.626;23.308;2023-04-22T16:46:51;69728.19;;;-148.95;49.07
38558;BME280;24333;42.626;23.308;2023-04-22T16:49:17;69738.56;;;-148.95;49.26
38558;BME280;24333;42.626;23.308;2023-04-22T16:51:43;69742.72;;;-148.95;49.53
38558;BME280;24333;42.626;23.308;2023-04-22T16:54:09;69761.38;;;-148.95;49.97
38558;BME280;24333;42.626;23.308;2023-04-22T16:56:34;69771.75;;;-148.95;50.56
38558;BME280;24333;42.626;23.308;2023-04-22T16:59:03;69784.19;;;-148.95;51.53
38558;BME280;24333;42.626;23.308;2023-04-22T17:01:28;69790.41;;;-148.95;52.47
38558;BME280;24333;42.626;23.308;2023-04-22T17:03:54;69802.88;;;-148.95;53.88
38558;BME280;24333;42.626;23.308;2023-04-22T17:06:20;69825.69;;;-148.95;54.54
38558;BME280;24333;42.626;23.308;2023-04-22T17:08:46;69833.97;;;-148.95;55.47
38558;BME280;24333;42.626;23.308;2023-04-22T17:11:11;69831.91;;;-148.95;56.50
38558;BME280;24333;42.626;23.308;2023-04-22T17:13:37;69848.50;;;-148.95;57.91
38558;BME280;24333;42.626;23.308;2023-04-22T17:16:02;69844.34;;;-148.95;58.48
38558;BME280;24333;42.626;23.308;2023-04-22T17:18:28;69844.34;;;-148.95;59.23
38558;BME280;24333;42.626;23.308;2023-04-22T17:20:53;69850.56;;;-148.95;59.72
38558;BME280;24333;42.626;23.308;2023-04-22T17:23:20;69852.66;;;-148.95;60.36
38558;BME280;24333;42.626;23.308;2023-04-22T17:25:45;69852.66;;;-148.95;61.12
38558;BME280;24333;42.626;23.308;2023-04-22T17:28:11;69856.81;;;-148.95;60.77
38558;BME280;24333;42.626;23.308;2023-04-22T17:30:37;69867.16;;;-148.95;60.32
38558;BME280;24333;42.626;23.308;2023-04-22T17:33:02;69865.09;;;-148.95;60.23
38558;BME280;24333;42.626;23.308;2023-04-22T17:35:27;69877.53;;;-148.95;59.63
38558;BME280;24333;42.626;23.308;2023-04-22T17:37:53;69885.84;;;-148.95;59.10
38558;BME280;24333;42.626;23.308;2023-04-22T17:40:18;69885.84;;;-148.95;60.65
38558;BME280;24333;42.626;23.308;2023-04-22T17:42:46;69892.06;;;-148.95;60.56
38558;BME280;24333;42.626;23.308;2023-04-22T17:45:11;69898.28;;;-148.95;60.26
38558;BME280;24333;42.626;23.308;2023-04-22T17:47:36;69902.44;;;-148.95;61.21
38558;BME280;24333;42.626;23.308;2023-04-22T17:50:03;69910.72;;;-148.95;62.69
38558;BME280;24333;42.626;23.308;2023-04-22T17:52:29;69919.03;;;-148.95;63.39
38558;BME280;24333;42.626;23.308;2023-04-22T17:54:54;69927.31;;;-148.95;63.31
38558;BME280;24333;42.626;23.308;2023-04-22T17:57:20;69935.63;;;-148.95;63.65
38558;BME280;24333;42.626;23.308;2023-04-22T17:59:45;69952.22;;;-148.95;64.49
38558;BME280;24333;42.626;23.308;2023-04-22T18:02:10;69956.38;;;-148.95;65.32
38558;BME280;24333;42.626;23.308;2023-04-22T18:04:36;69972.97;;;-148.95;66.17
38558;BME280;24333;42.626;23.308;2023-04-22T18:07:02;69989.56;;;-148.95;67.96
38558;BME280;24333;42.626;23.308;2023-04-22T18:09:27;69997.88;;;-148.95;69.10
38558;BME280;24333;42.626;23.308;2023-04-22T18:11:56;70012.38;;;-148.95;70.86
38558;BME280;24333;42.626;23.308;2023-04-22T18:14:24;70028.97;;;-148.95;72.44
38558;BME280;24333;42.626;23.308;2023-04-22T18:16:51;70043.50;;;-148.95;73.52
38558;BME280;24333;42.626;23.308;2023-04-22T18:19:16;70060.09;;;-148.95;74.46
38558;BME280;24333;42.626;23.308;2023-04-22T18:21:43;70080.84;;;-148.95;76.71
38558;BME280;24333;42.626;23.308;2023-04-22T18:24:08;70095.38;;;-148.95;77.12
38558;BME280;24333;42.626;23.308;2023-04-22T18:26:34;70114.03;;;-148.95;78.49
38558;BME280;24333;42.626;23.308;2023-04-22T18:28:59;70118.19;;;-148.95;78.18
38558;BME280;24333;42.626;23.308;2023-04-22T18:31:24;70126.47;;;-148.95;76.66
38558;BME280;24333;42.626;23.308;2023-04-22T18:33:50;70128.56;;;-148.95;76.01
38558;BME280;24333;42.626;23.308;2023-04-22T18:36:15;70145.16;;;-148.95;75.48
38558;BME280;24333;42.626;23.308;2023-04-22T18:38:42;70153.47;;;-148.95;76.60
38558;BME280;24333;42.626;23.308;2023-04-22T18:41:08;70159.69;;;-148.95;77.25
38558;BME280;24333;42.626;23.308;2023-04-22T18:43:38;70170.06;;;-148.95;76.99
38558;BME280;24333;42.626;23.308;2023-04-22T18:46:03;70174.19;;;-148.95;75.69
38558;BME280;24333;42.626;23.308;2023-04-22T18:49:07;70174.19;;;-148.95;75.25
38558;BME280;24333;42.626;23.308;2023-04-22T18:51:32;70180.44;;;-148.95;75.87
38558;BME280;24333;42.626;23.308;2023-04-22T18:53:58;70188.72;;;-148.95;76.11
38558;BME280;24333;42.626;23.308;2023-04-22T18:56:24;70176.28;;;-148.95;74.96
38558;BME280;24333;42.626;23.308;2023-04-22T19:02:39;70203.25;;;-148.95;74.16
38558;BME280;24333;42.626;23.308;2023-04-22T19:05:40;70201.16;;;-148.95;73.20
38558;BME280;24333;42.626;23.308;2023-04-22T19:08:06;70203.25;;;-148.95;72.50
38558;BME280;24333;42.626;23.308;2023-04-22T19:10:31;70205.31;;;-148.95;73.29
38558;BME280;24333;42.626;23.308;2023-04-22T19:12:57;70205.31;;;-148.95;72.76
38558;BME280;24333;42.626;23.308;2023-04-22T19:15:23;70201.16;;;-148.95;73.44
38558;BME280;24333;42.626;23.308;2023-04-22T19:17:48;70209.47;;;-148.95;72.58
38558;BME280;24333;42.626;23.308;2023-04-22T19:20:14;70209.47;;;-148.95;72.73
38558;BME280;24333;42.626;23.308;2023-04-22T19:22:39;70209.47;;;-148.95;73.34
38558;BME280;24333;42.626;23.308;2023-04-22T19:25:05;70213.63;;;-148.95;73.18
38558;BME280;24333;42.626;23.308;2023-04-22T19:27:32;70213.63;;;-148.95;72.95
38558;BME280;24333;42.626;23.308;2023-04-22T19:29:57;70226.06;;;-148.95;72.06
38558;BME280;24333;42.626;23.308;2023-04-22T19:32:23;70226.06;;;-148.95;72.91
